sensor_id;sensor_type;location;lat;lon;timestamp;P1;durP1;ratioP1;P2;durP2;ratioP2
30458;SDS011;17254;50.976;7.034;2023-01-15T00:00:01;5.20;;;3.00;;
30458;SDS011;17254;50.976;7.034;2023-01-15T00:00:11;4.27;;;2.80;;
30458;SDS011;17254;50.976;7.034;2023-01-15T00:00:17;4.98;;;2.88;;
30458;SDS011;17254;50.976;7.034;2023-01-15T00:00:25;4.60;;;2.78;;
30458;SDS011;17254;50.976;7.034;2023-01-15T00:00:31;3.96;;;2.78;;
30458;SDS011;17254;50.976;7.034;2023-01-15T00:00:37;4.25;;;2.90;;
30458;SDS011;17254;50.976;7.034;2023-01-15T00:00:43;4.10;;;2.92;;
30458;SDS011;17254;50.976;7.034;2023-01-15T00:00:49;3.83;;;2.87;;
30458;SDS011;17254;50.976;7.034;2023-01-15T00:00:55;4.02;;;2.92;;
30458;SDS011;17254;50.976;7.034;2023-01-15T00:01:02;4.10;;;2.97;;
30458;SDS011;17254;50.976;7.034;2023-01-15T00:01:19;3.86;;;2.80;;
30458;SDS011;17254;50.976;7.034;2023-01-15T00:01:27;3.55;;;2.80;;
30458;SDS011;17254;50.976;7.034;2023-01-15T00:01:35;3.62;;;2.93;;
30458;SDS011;17254;50.976;7.034;2023-01-15T00:01:41;3.93;;;3.00;;
30458;SDS011;17254;50.976;7.034;2023-01-15T00:01:48;3.94;;;2.90;;
30458;SDS011;17254;50.976;7.034;2023-01-15T00:01:54;4.15;;;2.85;;
30458;SDS011;17254;50.976;7.034;2023-01-15T00:02:00;4.20;;;2.75;;
30458;SDS011;17254;50.976;7.034;2023-01-15T00:02:06;4.37;;;2.90;;
30458;SDS011;17254;50.976;7.034;2023-01-15T00:02:12;4.22;;;2.90;;
30458;SDS011;17254;50.976;7.034;2023-01-15T00:02:20;4.04;;;2.96;;
30458;SDS011;17254;50.976;7.034;2023-01-15T00:02:26;3.85;;;3.13;;
30458;SDS011;17254;50.976;7.034;2023-01-15T00:02:32;3.92;;;3.08;;
30458;SDS011;17254;50.976;7.034;2023-01-15T00:02:39;3.80;;;3.00;;
30458;SDS011;17254;50.976;7.034;2023-01-15T00:02:45;3.57;;;2.90;;
30458;SDS011;17254;50.976;7.034;2023-01-15T00:02:51;3.67;;;2.85;;
30458;SDS011;17254;50.976;7.034;2023-01-15T00:02:58;3.93;;;2.80;;
30458;SDS011;17254;50.976;7.034;2023-01-15T00:03:04;3.68;;;2.80;;
30458;SDS011;17254;50.976;7.034;2023-01-15T00:03:10;3.90;;;2.70;;
30458;SDS011;17254;50.976;7.034;2023-01-15T00:03:16;4.05;;;2.70;;
30458;SDS011;17254;50.976;7.034;2023-01-15T00:03:22;4.00;;;2.67;;
30458;SDS011;17254;50.976;7.034;2023-01-15T00:03:29;4.10;;;2.72;;
30458;SDS011;17254;50.976;7.034;2023-01-15T00:03:35;4.03;;;2.80;;
30458;SDS011;17254;50.976;7.034;2023-01-15T00:03:41;3.60;;;2.90;;
30458;SDS011;17254;50.976;7.034;2023-01-15T00:03:47;3.50;;;2.92;;
30458;SDS011;17254;50.976;7.034;2023-01-15T00:03:53;3.55;;;2.90;;
30458;SDS011;17254;50.976;7.034;2023-01-15T00:04:01;3.17;;;2.75;;
30458;SDS011;17254;50.976;7.034;2023-01-15T00:04:10;3.10;;;2.70;;
30458;SDS011;17254;50.976;7.034;2023-01-15T00:04:16;3.90;;;2.80;;
30458;SDS011;17254;50.976;7.034;2023-01-15T00:04:22;3.88;;;2.90;;
30458;SDS011;17254;50.976;7.034;2023-01-15T00:04:29;3.80;;;2.90;;
30458;SDS011;17254;50.976;7.034;2023-01-15T00:04:35;3.90;;;2.95;;
30458;SDS011;17254;50.976;7.034;2023-01-15T00:04:41;4.00;;;2.92;;
30458;SDS011;17254;50.976;7.034;2023-01-15T00:04:49;3.17;;;2.80;;
30458;SDS011;17254;50.976;7.034;2023-01-15T00:04:55;3.13;;;2.63;;
30458;SDS011;17254;50.976;7.034;2023-01-15T00:05:01;3.05;;;2.70;;
30458;SDS011;17254;50.976;7.034;2023-01-15T00:05:07;3.27;;;2.57;;
30458;SDS011;17254;50.976;7.034;2023-01-15T00:05:13;3.30;;;2.50;;
30458;SDS011;17254;50.976;7.034;2023-01-15T00:05:19;4.45;;;2.78;;
30458;SDS011;17254;50.976;7.034;2023-01-15T00:05:25;4.95;;;2.70;;
30458;SDS011;17254;50.976;7.034;2023-01-15T00:05:31;5.18;;;2.63;;
30458;SDS011;17254;50.976;7.034;2023-01-15T00:05:40;5.17;;;2.63;;
30458;SDS011;17254;50.976;7.034;2023-01-15T00:05:46;5.03;;;2.53;;
30458;SDS011;17254;50.976;7.034;2023-01-15T00:05:52;3.95;;;2.40;;
30458;SDS011;17254;50.976;7.034;2023-01-15T00:06:00;4.30;;;2.50;;
30458;SDS011;17254;50.976;7.034;2023-01-15T00:06:07;4.11;;;2.37;;
30458;SDS011;17254;50.976;7.034;2023-01-15T00:06:13;3.77;;;2.47;;
30458;SDS011;17254;50.976;7.034;2023-01-15T00:06:20;4.00;;;2.30;;
30458;SDS011;17254;50.976;7.034;2023-01-15T00:06:27;3.20;;;2.23;;
30458;SDS011;17254;50.976;7.034;2023-01-15T00:06:35;3.25;;;2.33;;
30458;SDS011;17254;50.976;7.034;2023-01-15T00:06:43;3.53;;;2.37;;
30458;SDS011;17254;50.976;7.034;2023-01-15T00:06:49;3.30;;;2.53;;
30458;SDS011;17254;50.976;7.034;2023-01-15T00:06:54;3.30;;;2.60;;
30458;SDS011;17254;50.976;7.034;2023-01-15T00:07:00;3.27;;;2.47;;
30458;SDS011;17254;50.976;7.034;2023-01-15T00:07:06;3.47;;;2.50;;
30458;SDS011;17254;50.976;7.034;2023-01-15T00:07:12;3.38;;;2.50;;
30458;SDS011;17254;50.976;7.034;2023-01-15T00:07:18;3.40;;;2.50;;
30458;SDS011;17254;50.976;7.034;2023-01-15T00:07:24;3.40;;;2.50;;
30458;SDS011;17254;50.976;7.034;2023-01-15T00:07:30;3.40;;;2.60;;
30458;SDS011;17254;50.976;7.034;2023-01-15T00:07:36;3.08;;;2.60;;
30458;SDS011;17254;50.976;7.034;2023-01-15T00:07:42;3.05;;;2.65;;
30458;SDS011;17254;50.976;7.034;2023-01-15T00:07:48;3.03;;;2.63;;
30458;SDS011;17254;50.976;7.034;2023-01-15T00:07:56;3.20;;;2.67;;
30458;SDS011;17254;50.976;7.034;2023-01-15T00:08:02;3.70;;;2.67;;
30458;SDS011;17254;50.976;7.034;2023-01-15T00:08:08;4.07;;;2.65;;
30458;SDS011;17254;50.976;7.034;2023-01-15T00:08:14;5.10;;;2.80;;
30458;SDS011;17254;50.976;7.034;2023-01-15T00:08:20;5.13;;;2.80;;
30458;SDS011;17254;50.976;7.034;2023-01-15T00:08:26;5.05;;;2.72;;
30458;SDS011;17254;50.976;7.034;2023-01-15T00:08:31;4.78;;;2.83;;
30458;SDS011;17254;50.976;7.034;2023-01-15T00:08:37;5.20;;;2.97;;
30458;SDS011;17254;50.976;7.034;2023-01-15T00:08:46;4.87;;;2.90;;
30458;SDS011;17254;50.976;7.034;2023-01-15T00:08:53;4.76;;;2.80;;
30458;SDS011;17254;50.976;7.034;2023-01-15T00:08:59;4.90;;;2.70;;
30458;SDS011;17254;50.976;7.034;2023-01-15T00:09:05;4.43;;;2.60;;
30458;SDS011;17254;50.976;7.034;2023-01-15T00:09:14;3.63;;;2.60;;
30458;SDS011;17254;50.976;7.034;2023-01-15T00:09:20;4.18;;;2.80;;
30458;SDS011;17254;50.976;7.034;2023-01-15T00:09:26;4.23;;;2.87;;
30458;SDS011;17254;50.976;7.034;2023-01-15T00:09:32;3.97;;;2.90;;
30458;SDS011;17254;50.976;7.034;2023-01-15T00:09:38;3.80;;;2.78;;
30458;SDS011;17254;50.976;7.034;2023-01-15T00:09:44;3.88;;;2.53;;
30458;SDS011;17254;50.976;7.034;2023-01-15T00:09:50;3.80;;;2.40;;
30458;SDS011;17254;50.976;7.034;2023-01-15T00:09:56;4.16;;;2.48;;
30458;SDS011;17254;50.976;7.034;2023-01-15T00:10:02;4.67;;;2.57;;
30458;SDS011;17254;50.976;7.034;2023-01-15T00:10:10;4.66;;;2.56;;
30458;SDS011;17254;50.976;7.034;2023-01-15T00:10:16;4.48;;;2.70;;
30458;SDS011;17254;50.976;7.034;2023-01-15T00:10:22;3.93;;;2.53;;
30458;SDS011;17254;50.976;7.034;2023-01-15T00:10:28;3.83;;;2.53;;
30458;SDS011;17254;50.976;7.034;2023-01-15T00:10:34;3.30;;;2.50;;
30458;SDS011;17254;50.976;7.034;2023-01-15T00:10:40;3.13;;;2.43;;
30458;SDS011;17254;50.976;7.034;2023-01-15T00:10:47;3.10;;;2.40;;
30458;SDS011;17254;50.976;7.034;2023-01-15T00:10:53;3.10;;;2.57;;
30458;SDS011;17254;50.976;7.034;2023-01-15T00:11:01;3.37;;;2.60;;
30458;SDS011;17254;50.976;7.034;2023-01-15T00:11:07;3.50;;;2.70;;
30458;SDS011;17254;50.976;7.034;2023-01-15T00:11:13;3.55;;;2.67;;
30458;SDS011;17254;50.976;7.034;2023-01-15T00:11:19;3.67;;;2.65;;
30458;SDS011;17254;50.976;7.034;2023-01-15T00:11:26;3.64;;;2.60;;
30458;SDS011;17254;50.976;7.034;2023-01-15T00:11:32;3.53;;;2.50;;
30458;SDS011;17254;50.976;7.034;2023-01-15T00:11:38;3.50;;;2.50;;
30458;SDS011;17254;50.976;7.034;2023-01-15T00:11:44;3.40;;;2.47;;
30458;SDS011;17254;50.976;7.034;2023-01-15T00:11:51;3.03;;;2.37;;
30458;SDS011;17254;50.976;7.034;2023-01-15T00:11:57;3.03;;;2.40;;
30458;SDS011;17254;50.976;7.034;2023-01-15T00:12:03;3.50;;;2.40;;
30458;SDS011;17254;50.976;7.034;2023-01-15T00:12:09;4.10;;;2.60;;
30458;SDS011;17254;50.976;7.034;2023-01-15T00:12:15;4.20;;;2.70;;
30458;SDS011;17254;50.976;7.034;2023-01-15T00:12:21;4.25;;;2.83;;
30458;SDS011;17254;50.976;7.034;2023-01-15T00:12:27;4.22;;;2.80;;
30458;SDS011;17254;50.976;7.034;2023-01-15T00:12:32;4.00;;;2.73;;
30458;SDS011;17254;50.976;7.034;2023-01-15T00:12:38;4.32;;;2.72;;
30458;SDS011;17254;50.976;7.034;2023-01-15T00:12:44;3.90;;;2.60;;
30458;SDS011;17254;50.976;7.034;2023-01-15T00:12:50;3.80;;;2.50;;
30458;SDS011;17254;50.976;7.034;2023-01-15T00:12:56;3.72;;;2.50;;
30458;SDS011;17254;50.976;7.034;2023-01-15T00:13:02;3.30;;;2.50;;
30458;SDS011;17254;50.976;7.034;2023-01-15T00:13:09;2.85;;;2.55;;
30458;SDS011;17254;50.976;7.034;2023-01-15T00:13:15;2.95;;;2.60;;
30458;SDS011;17254;50.976;7.034;2023-01-15T00:13:21;3.00;;;2.70;;
30458;SDS011;17254;50.976;7.034;2023-01-15T00:13:27;3.10;;;2.70;;
30458;SDS011;17254;50.976;7.034;2023-01-15T00:13:33;3.47;;;2.67;;
30458;SDS011;17254;50.976;7.034;2023-01-15T00:13:39;3.70;;;2.60;;
30458;SDS011;17254;50.976;7.034;2023-01-15T00:13:45;3.78;;;2.64;;
30458;SDS011;17254;50.976;7.034;2023-01-15T00:13:52;3.90;;;2.60;;
30458;SDS011;17254;50.976;7.034;2023-01-15T00:13:58;3.97;;;2.58;;
30458;SDS011;17254;50.976;7.034;2023-01-15T00:14:04;3.95;;;2.70;;
30458;SDS011;17254;50.976;7.034;2023-01-15T00:14:11;4.73;;;2.77;;
30458;SDS011;17254;50.976;7.034;2023-01-15T00:14:17;4.40;;;2.53;;
30458;SDS011;17254;50.976;7.034;2023-01-15T00:14:23;4.40;;;2.57;;
30458;SDS011;17254;50.976;7.034;2023-01-15T00:14:28;4.30;;;2.55;;
30458;SDS011;17254;50.976;7.034;2023-01-15T00:14:34;3.93;;;2.47;;
30458;SDS011;17254;50.976;7.034;2023-01-15T00:14:40;3.42;;;2.30;;
30458;SDS011;17254;50.976;7.034;2023-01-15T00:14:46;3.30;;;2.45;;
30458;SDS011;17254;50.976;7.034;2023-01-15T00:14:52;3.22;;;2.60;;
30458;SDS011;17254;50.976;7.034;2023-01-15T00:14:58;3.28;;;2.53;;
30458;SDS011;17254;50.976;7.034;2023-01-15T00:15:06;3.75;;;2.60;;
30458;SDS011;17254;50.976;7.034;2023-01-15T00:15:13;3.57;;;2.70;;
30458;SDS011;17254;50.976;7.034;2023-01-15T00:15:19;3.70;;;2.70;;
30458;SDS011;17254;50.976;7.034;2023-01-15T00:15:24;3.67;;;2.67;;
30458;SDS011;17254;50.976;7.034;2023-01-15T00:15:30;3.58;;;2.75;;
30458;SDS011;17254;50.976;7.034;2023-01-15T00:15:37;3.38;;;2.80;;
30458;SDS011;17254;50.976;7.034;2023-01-15T00:15:43;3.28;;;2.78;;
30458;SDS011;17254;50.976;7.034;2023-01-15T00:15:49;3.40;;;2.67;;
30458;SDS011;17254;50.976;7.034;2023-01-15T00:16:01;3.83;;;2.60;;
30458;SDS011;17254;50.976;7.034;2023-01-15T00:16:09;3.90;;;2.50;;
30458;SDS011;17254;50.976;7.034;2023-01-15T00:16:17;4.04;;;2.50;;
30458;SDS011;17254;50.976;7.034;2023-01-15T00:16:24;3.30;;;2.47;;
30458;SDS011;17254;50.976;7.034;2023-01-15T00:16:31;3.20;;;2.46;;
30458;SDS011;17254;50.976;7.034;2023-01-15T00:16:37;2.90;;;2.33;;
30458;SDS011;17254;50.976;7.034;2023-01-15T00:16:44;2.78;;;2.40;;
30458;SDS011;17254;50.976;7.034;2023-01-15T00:16:51;2.70;;;2.30;;
30458;SDS011;17254;50.976;7.034;2023-01-15T00:16:57;2.80;;;2.47;;
30458;SDS011;17254;50.976;7.034;2023-01-15T00:17:03;3.10;;;2.60;;
30458;SDS011;17254;50.976;7.034;2023-01-15T00:17:09;3.60;;;2.70;;
30458;SDS011;17254;50.976;7.034;2023-01-15T00:17:15;4.35;;;2.80;;
30458;SDS011;17254;50.976;7.034;2023-01-15T00:17:21;4.65;;;2.80;;
30458;SDS011;17254;50.976;7.034;2023-01-15T00:17:27;4.65;;;2.63;;
30458;SDS011;17254;50.976;7.034;2023-01-15T00:17:33;4.45;;;2.53;;
30458;SDS011;17254;50.976;7.034;2023-01-15T00:17:40;4.50;;;2.50;;
30458;SDS011;17254;50.976;7.034;2023-01-15T00:17:46;3.78;;;2.36;;
30458;SDS011;17254;50.976;7.034;2023-01-15T00:17:54;3.62;;;2.40;;
30458;SDS011;17254;50.976;7.034;2023-01-15T00:18:00;3.53;;;2.40;;
30458;SDS011;17254;50.976;7.034;2023-01-15T00:18:07;3.83;;;2.40;;
30458;SDS011;17254;50.976;7.034;2023-01-15T00:18:12;4.13;;;2.50;;
30458;SDS011;17254;50.976;7.034;2023-01-15T00:18:18;4.05;;;2.50;;
30458;SDS011;17254;50.976;7.034;2023-01-15T00:18:24;4.00;;;2.50;;
30458;SDS011;17254;50.976;7.034;2023-01-15T00:18:30;4.47;;;2.53;;
30458;SDS011;17254;50.976;7.034;2023-01-15T00:18:37;4.50;;;2.57;;
30458;SDS011;17254;50.976;7.034;2023-01-15T00:18:43;4.07;;;2.53;;
30458;SDS011;17254;50.976;7.034;2023-01-15T00:18:58;4.27;;;2.60;;
30458;SDS011;17254;50.976;7.034;2023-01-15T00:19:05;3.30;;;2.53;;
30458;SDS011;17254;50.976;7.034;2023-01-15T00:19:14;2.96;;;2.46;;
30458;SDS011;17254;50.976;7.034;2023-01-15T00:19:21;2.97;;;2.50;;
30458;SDS011;17254;50.976;7.034;2023-01-15T00:19:27;2.70;;;2.40;;
30458;SDS011;17254;50.976;7.034;2023-01-15T00:19:33;2.78;;;2.40;;
30458;SDS011;17254;50.976;7.034;2023-01-15T00:19:39;2.90;;;2.42;;
30458;SDS011;17254;50.976;7.034;2023-01-15T00:19:45;2.90;;;2.40;;
30458;SDS011;17254;50.976;7.034;2023-01-15T00:19:51;3.20;;;2.30;;
30458;SDS011;17254;50.976;7.034;2023-01-15T00:19:57;3.55;;;2.47;;
30458;SDS011;17254;50.976;7.034;2023-01-15T00:20:03;3.58;;;2.47;;
30458;SDS011;17254;50.976;7.034;2023-01-15T00:20:10;3.90;;;2.40;;
30458;SDS011;17254;50.976;7.034;2023-01-15T00:20:16;3.92;;;2.40;;
30458;SDS011;17254;50.976;7.034;2023-01-15T00:20:22;3.95;;;2.45;;
30458;SDS011;17254;50.976;7.034;2023-01-15T00:20:28;3.57;;;2.23;;
30458;SDS011;17254;50.976;7.034;2023-01-15T00:20:34;3.72;;;2.35;;
30458;SDS011;17254;50.976;7.034;2023-01-15T00:20:40;3.50;;;2.40;;
30458;SDS011;17254;50.976;7.034;2023-01-15T00:20:46;3.38;;;2.38;;
30458;SDS011;17254;50.976;7.034;2023-01-15T00:20:57;3.17;;;2.38;;
30458;SDS011;17254;50.976;7.034;2023-01-15T00:21:03;3.61;;;2.47;;
30458;SDS011;17254;50.976;7.034;2023-01-15T00:21:12;3.43;;;2.46;;
30458;SDS011;17254;50.976;7.034;2023-01-15T00:21:18;3.67;;;2.57;;
30458;SDS011;17254;50.976;7.034;2023-01-15T00:21:25;3.42;;;2.53;;
30458;SDS011;17254;50.976;7.034;2023-01-15T00:21:32;3.43;;;2.43;;
30458;SDS011;17254;50.976;7.034;2023-01-15T00:21:38;3.60;;;2.50;;
30458;SDS011;17254;50.976;7.034;2023-01-15T00:21:44;3.53;;;2.38;;
30458;SDS011;17254;50.976;7.034;2023-01-15T00:21:50;3.43;;;2.30;;
30458;SDS011;17254;50.976;7.034;2023-01-15T00:21:57;3.97;;;2.40;;
30458;SDS011;17254;50.976;7.034;2023-01-15T00:22:03;4.00;;;2.40;;
30458;SDS011;17254;50.976;7.034;2023-01-15T00:22:09;4.05;;;2.40;;
30458;SDS011;17254;50.976;7.034;2023-01-15T00:22:15;4.10;;;2.58;;
30458;SDS011;17254;50.976;7.034;2023-01-15T00:22:22;4.00;;;2.53;;
30458;SDS011;17254;50.976;7.034;2023-01-15T00:22:28;3.72;;;2.63;;
30458;SDS011;17254;50.976;7.034;2023-01-15T00:22:34;3.58;;;2.70;;
30458;SDS011;17254;50.976;7.034;2023-01-15T00:22:40;3.58;;;2.63;;
30458;SDS011;17254;50.976;7.034;2023-01-15T00:22:46;3.60;;;2.53;;
30458;SDS011;17254;50.976;7.034;2023-01-15T00:22:52;3.42;;;2.50;;
30458;SDS011;17254;50.976;7.034;2023-01-15T00:22:58;3.30;;;2.42;;
30458;SDS011;17254;50.976;7.034;2023-01-15T00:23:03;3.60;;;2.43;;
30458;SDS011;17254;50.976;7.034;2023-01-15T00:23:09;3.93;;;2.50;;
30458;SDS011;17254;50.976;7.034;2023-01-15T00:23:35;3.78;;;2.67;;
30458;SDS011;17254;50.976;7.034;2023-01-15T00:24:00;3.74;;;2.81;;
30458;SDS011;17254;50.976;7.034;2023-01-15T00:24:25;3.90;;;2.72;;
30458;SDS011;17254;50.976;7.034;2023-01-15T00:24:49;3.50;;;2.69;;
30458;SDS011;17254;50.976;7.034;2023-01-15T00:25:13;3.41;;;2.67;;
30458;SDS011;17254;50.976;7.034;2023-01-15T00:25:38;3.65;;;2.53;;
30458;SDS011;17254;50.976;7.034;2023-01-15T00:26:02;3.59;;;2.39;;
30458;SDS011;17254;50.976;7.034;2023-01-15T00:26:28;3.46;;;2.44;;
30458;SDS011;17254;50.976;7.034;2023-01-15T00:26:54;3.35;;;2.56;;
30458;SDS011;17254;50.976;7.034;2023-01-15T00:27:18;3.44;;;2.64;;
30458;SDS011;17254;50.976;7.034;2023-01-15T00:27:42;3.60;;;2.70;;
30458;SDS011;17254;50.976;7.034;2023-01-15T00:27:50;4.48;;;2.88;;
30458;SDS011;17254;50.976;7.034;2023-01-15T00:27:56;4.65;;;2.78;;
30458;SDS011;17254;50.976;7.034;2023-01-15T00:28:01;4.63;;;2.63;;
30458;SDS011;17254;50.976;7.034;2023-01-15T00:28:07;4.40;;;2.50;;
30458;SDS011;17254;50.976;7.034;2023-01-15T00:28:16;3.90;;;2.50;;
30458;SDS011;17254;50.976;7.034;2023-01-15T00:28:24;3.80;;;2.57;;
30458;SDS011;17254;50.976;7.034;2023-01-15T00:28:30;4.05;;;2.67;;
30458;SDS011;17254;50.976;7.034;2023-01-15T00:28:36;4.03;;;2.72;;
30458;SDS011;17254;50.976;7.034;2023-01-15T00:28:42;4.27;;;2.67;;
30458;SDS011;17254;50.976;7.034;2023-01-15T00:28:47;4.80;;;2.60;;
30458;SDS011;17254;50.976;7.034;2023-01-15T00:28:54;4.70;;;2.50;;
30458;SDS011;17254;50.976;7.034;2023-01-15T00:29:00;4.55;;;2.50;;
30458;SDS011;17254;50.976;7.034;2023-01-15T00:29:06;5.38;;;2.50;;
30458;SDS011;17254;50.976;7.034;2023-01-15T00:29:14;6.22;;;2.74;;
30458;SDS011;17254;50.976;7.034;2023-01-15T00:29:22;6.03;;;2.92;;
30458;SDS011;17254;50.976;7.034;2023-01-15T00:29:28;6.20;;;3.00;;
30458;SDS011;17254;50.976;7.034;2023-01-15T00:29:36;5.33;;;2.93;;
30458;SDS011;17254;50.976;7.034;2023-01-15T00:29:42;4.13;;;2.80;;
30458;SDS011;17254;50.976;7.034;2023-01-15T00:29:50;3.82;;;2.70;;
30458;SDS011;17254;50.976;7.034;2023-01-15T00:29:55;3.65;;;2.80;;
30458;SDS011;17254;50.976;7.034;2023-01-15T00:30:01;4.03;;;2.80;;
30458;SDS011;17254;50.976;7.034;2023-01-15T00:30:09;4.08;;;2.80;;
30458;SDS011;17254;50.976;7.034;2023-01-15T00:30:16;3.57;;;2.70;;
30458;SDS011;17254;50.976;7.034;2023-01-15T00:30:22;3.70;;;2.65;;
30458;SDS011;17254;50.976;7.034;2023-01-15T00:30:29;3.38;;;2.66;;
30458;SDS011;17254;50.976;7.034;2023-01-15T00:30:38;3.30;;;2.70;;
30458;SDS011;17254;50.976;7.034;2023-01-15T00:30:45;3.80;;;2.85;;
30458;SDS011;17254;50.976;7.034;2023-01-15T00:30:51;3.67;;;2.72;;
30458;SDS011;17254;50.976;7.034;2023-01-15T00:30:57;3.58;;;2.70;;
30458;SDS011;17254;50.976;7.034;2023-01-15T00:31:03;3.55;;;2.70;;
30458;SDS011;17254;50.976;7.034;2023-01-15T00:31:10;3.38;;;2.67;;
30458;SDS011;17254;50.976;7.034;2023-01-15T00:31:18;3.43;;;2.78;;
30458;SDS011;17254;50.976;7.034;2023-01-15T00:31:24;3.58;;;2.80;;
30458;SDS011;17254;50.976;7.034;2023-01-15T00:31:30;3.80;;;2.70;;
30458;SDS011;17254;50.976;7.034;2023-01-15T00:31:37;4.74;;;2.62;;
30458;SDS011;17254;50.976;7.034;2023-01-15T00:31:49;4.57;;;2.53;;
30458;SDS011;17254;50.976;7.034;2023-01-15T00:31:57;4.78;;;2.51;;
30458;SDS011;17254;50.976;7.034;2023-01-15T00:32:06;4.27;;;2.72;;
30458;SDS011;17254;50.976;7.034;2023-01-15T00:32:12;3.80;;;2.90;;
30458;SDS011;17254;50.976;7.034;2023-01-15T00:32:18;3.80;;;2.97;;
30458;SDS011;17254;50.976;7.034;2023-01-15T00:32:24;4.05;;;3.10;;
30458;SDS011;17254;50.976;7.034;2023-01-15T00:32:33;3.70;;;2.90;;
30458;SDS011;17254;50.976;7.034;2023-01-15T00:32:39;3.70;;;2.67;;
30458;SDS011;17254;50.976;7.034;2023-01-15T00:32:47;3.65;;;2.55;;
30458;SDS011;17254;50.976;7.034;2023-01-15T00:32:53;3.25;;;2.50;;
30458;SDS011;17254;50.976;7.034;2023-01-15T00:33:01;3.27;;;2.30;;
30458;SDS011;17254;50.976;7.034;2023-01-15T00:33:06;3.63;;;2.33;;
30458;SDS011;17254;50.976;7.034;2023-01-15T00:33:12;3.80;;;2.35;;
30458;SDS011;17254;50.976;7.034;2023-01-15T00:33:18;3.90;;;2.25;;
30458;SDS011;17254;50.976;7.034;2023-01-15T00:33:26;3.84;;;2.42;;
30458;SDS011;17254;50.976;7.034;2023-01-15T00:33:33;4.02;;;2.76;;
30458;SDS011;17254;50.976;7.034;2023-01-15T00:33:39;3.42;;;2.80;;
30458;SDS011;17254;50.976;7.034;2023-01-15T00:33:45;3.50;;;2.90;;
30458;SDS011;17254;50.976;7.034;2023-01-15T00:33:51;3.40;;;3.00;;
30458;SDS011;17254;50.976;7.034;2023-01-15T00:33:57;3.67;;;3.05;;
30458;SDS011;17254;50.976;7.034;2023-01-15T00:34:03;3.47;;;2.90;;
30458;SDS011;17254;50.976;7.034;2023-01-15T00:34:09;3.67;;;2.90;;
30458;SDS011;17254;50.976;7.034;2023-01-15T00:34:16;4.10;;;3.00;;
30458;SDS011;17254;50.976;7.034;2023-01-15T00:34:23;4.10;;;2.93;;
30458;SDS011;17254;50.976;7.034;2023-01-15T00:34:29;3.90;;;2.86;;
30458;SDS011;17254;50.976;7.034;2023-01-15T00:34:36;3.70;;;2.83;;
30458;SDS011;17254;50.976;7.034;2023-01-15T00:34:42;3.42;;;2.85;;
30458;SDS011;17254;50.976;7.034;2023-01-15T00:34:48;3.40;;;2.90;;
30458;SDS011;17254;50.976;7.034;2023-01-15T00:34:54;3.42;;;2.90;;
30458;SDS011;17254;50.976;7.034;2023-01-15T00:35:00;3.40;;;2.90;;
30458;SDS011;17254;50.976;7.034;2023-01-15T00:35:06;3.58;;;2.92;;
30458;SDS011;17254;50.976;7.034;2023-01-15T00:35:16;3.73;;;3.00;;
30458;SDS011;17254;50.976;7.034;2023-01-15T00:35:23;3.83;;;2.83;;
30458;SDS011;17254;50.976;7.034;2023-01-15T00:35:30;3.70;;;2.73;;
30458;SDS011;17254;50.976;7.034;2023-01-15T00:35:36;3.60;;;2.63;;
30458;SDS011;17254;50.976;7.034;2023-01-15T00:35:41;3.28;;;2.53;;
30458;SDS011;17254;50.976;7.034;2023-01-15T00:35:48;2.94;;;2.40;;
30458;SDS011;17254;50.976;7.034;2023-01-15T00:35:54;2.97;;;2.53;;
30458;SDS011;17254;50.976;7.034;2023-01-15T00:36:01;3.40;;;2.62;;
30458;SDS011;17254;50.976;7.034;2023-01-15T00:36:07;3.70;;;2.70;;
30458;SDS011;17254;50.976;7.034;2023-01-15T00:36:13;3.85;;;2.85;;
30458;SDS011;17254;50.976;7.034;2023-01-15T00:36:19;4.30;;;2.95;;
30458;SDS011;17254;50.976;7.034;2023-01-15T00:36:24;4.28;;;2.97;;
30458;SDS011;17254;50.976;7.034;2023-01-15T00:36:30;4.45;;;3.03;;
30458;SDS011;17254;50.976;7.034;2023-01-15T00:36:38;4.20;;;3.03;;
30458;SDS011;17254;50.976;7.034;2023-01-15T00:36:45;3.80;;;2.73;;
30458;SDS011;17254;50.976;7.034;2023-01-15T00:36:51;3.85;;;2.80;;
30458;SDS011;17254;50.976;7.034;2023-01-15T00:36:57;4.07;;;2.65;;
30458;SDS011;17254;50.976;7.034;2023-01-15T00:37:03;3.90;;;2.57;;
30458;SDS011;17254;50.976;7.034;2023-01-15T00:37:11;4.17;;;2.50;;
30458;SDS011;17254;50.976;7.034;2023-01-15T00:37:17;4.75;;;2.55;;
30458;SDS011;17254;50.976;7.034;2023-01-15T00:37:23;4.68;;;2.60;;
30458;SDS011;17254;50.976;7.034;2023-01-15T00:37:29;4.90;;;2.75;;
30458;SDS011;17254;50.976;7.034;2023-01-15T00:37:35;4.83;;;2.80;;
30458;SDS011;17254;50.976;7.034;2023-01-15T00:37:41;4.60;;;2.90;;
30458;SDS011;17254;50.976;7.034;2023-01-15T00:37:49;4.24;;;2.96;;
30458;SDS011;17254;50.976;7.034;2023-01-15T00:37:55;3.74;;;2.90;;
30458;SDS011;17254;50.976;7.034;2023-01-15T00:38:01;3.22;;;2.80;;
30458;SDS011;17254;50.976;7.034;2023-01-15T00:38:08;3.14;;;2.70;;
30458;SDS011;17254;50.976;7.034;2023-01-15T00:38:14;3.13;;;2.70;;
30458;SDS011;17254;50.976;7.034;2023-01-15T00:38:20;3.30;;;2.73;;
30458;SDS011;17254;50.976;7.034;2023-01-15T00:38:27;3.80;;;2.60;;
30458;SDS011;17254;50.976;7.034;2023-01-15T00:38:33;3.50;;;2.60;;
30458;SDS011;17254;50.976;7.034;2023-01-15T00:38:39;4.32;;;2.78;;
30458;SDS011;17254;50.976;7.034;2023-01-15T00:38:44;4.38;;;2.65;;
30458;SDS011;17254;50.976;7.034;2023-01-15T00:38:51;4.03;;;2.50;;
30458;SDS011;17254;50.976;7.034;2023-01-15T00:38:58;3.96;;;2.64;;
30458;SDS011;17254;50.976;7.034;2023-01-15T00:39:04;4.03;;;2.65;;
30458;SDS011;17254;50.976;7.034;2023-01-15T00:39:10;3.77;;;2.60;;
30458;SDS011;17254;50.976;7.034;2023-01-15T00:39:15;4.10;;;2.85;;
30458;SDS011;17254;50.976;7.034;2023-01-15T00:39:21;4.32;;;3.00;;
30458;SDS011;17254;50.976;7.034;2023-01-15T00:39:28;4.22;;;3.00;;
30458;SDS011;17254;50.976;7.034;2023-01-15T00:39:34;4.30;;;2.90;;
30458;SDS011;17254;50.976;7.034;2023-01-15T00:39:41;3.90;;;2.73;;
30458;SDS011;17254;50.976;7.034;2023-01-15T00:39:47;3.37;;;2.50;;
30458;SDS011;17254;50.976;7.034;2023-01-15T00:39:53;3.53;;;2.37;;
30458;SDS011;17254;50.976;7.034;2023-01-15T00:39:59;3.55;;;2.33;;
30458;SDS011;17254;50.976;7.034;2023-01-15T00:40:05;3.42;;;2.40;;
30458;SDS011;17254;50.976;7.034;2023-01-15T00:40:12;3.40;;;2.50;;
30458;SDS011;17254;50.976;7.034;2023-01-15T00:40:20;3.55;;;2.50;;
30458;SDS011;17254;50.976;7.034;2023-01-15T00:40:26;3.55;;;2.65;;
30458;SDS011;17254;50.976;7.034;2023-01-15T00:40:31;3.80;;;2.70;;
30458;SDS011;17254;50.976;7.034;2023-01-15T00:40:37;4.10;;;2.70;;
30458;SDS011;17254;50.976;7.034;2023-01-15T00:40:43;4.20;;;2.83;;
30458;SDS011;17254;50.976;7.034;2023-01-15T00:40:49;4.30;;;2.93;;
30458;SDS011;17254;50.976;7.034;2023-01-15T00:40:57;3.97;;;2.85;;
30458;SDS011;17254;50.976;7.034;2023-01-15T00:41:04;3.93;;;2.87;;
30458;SDS011;17254;50.976;7.034;2023-01-15T00:41:10;3.95;;;2.65;;
30458;SDS011;17254;50.976;7.034;2023-01-15T00:41:16;4.00;;;2.58;;
30458;SDS011;17254;50.976;7.034;2023-01-15T00:41:22;3.92;;;2.58;;
30458;SDS011;17254;50.976;7.034;2023-01-15T00:41:28;4.15;;;2.53;;
30458;SDS011;17254;50.976;7.034;2023-01-15T00:41:34;4.15;;;2.50;;
30458;SDS011;17254;50.976;7.034;2023-01-15T00:41:40;4.20;;;2.80;;
30458;SDS011;17254;50.976;7.034;2023-01-15T00:41:46;4.13;;;2.88;;
30458;SDS011;17254;50.976;7.034;2023-01-15T00:41:53;4.16;;;2.96;;
30458;SDS011;17254;50.976;7.034;2023-01-15T00:42:00;3.88;;;2.95;;
30458;SDS011;17254;50.976;7.034;2023-01-15T00:42:06;3.33;;;2.97;;
30458;SDS011;17254;50.976;7.034;2023-01-15T00:42:13;3.30;;;2.72;;
30458;SDS011;17254;50.976;7.034;2023-01-15T00:42:20;3.57;;;2.70;;
30458;SDS011;17254;50.976;7.034;2023-01-15T00:42:26;3.75;;;2.78;;
30458;SDS011;17254;50.976;7.034;2023-01-15T00:42:31;3.70;;;2.83;;
30458;SDS011;17254;50.976;7.034;2023-01-15T00:42:37;3.88;;;2.90;;